Asti, California
Current Conditions -  °F | °C
As of 6:53 PM on Sunday 28 Dec 2014 (Local Time) from KSTS Reporting Station
Clear Clear  
Wind Chill:   Ceiling: Unl
Heat Index:   Visibility: 10mi
Dew Point:   Wind: 0mph
Humidity: 89%   Direction: NA
Pressure: 30.22"   Gusts: NA
Location:  38.7954°N, 123.01°W
Report Text: KSTS 290253Z 00000KT 10SM CLR 09/07 A3022 RMK AO2 SLP228 T00890072 53001
Loading
Personal Weather Stations






























Interactive Weather Map New forecast layout! Learn more

10-Day Weather Forecast

Advertisements
Track Severe Weather on mobile